OIBS  Sirri Island  Airport

Iran

Add Bookmark
ICAO OIBS
IATA SXI
Type Airport
Status Operational
Latitude
25° 54' 32" N
25.908899
Longitude
54° 32' 21" E
54.539398
Local (DST + 5) UTC (GMT + 4)
May 27, 2015 04:10 May 27, 2015 11:40
Sunrise-Sunset Local UTC
Begin Civil Twilight 05:34 01:04
Sunrise 05:59 01:29
Sunset 07:38 15:08
End Civil Twilight 08:03 15:33
VFR
VFR
MVFR
MVFR
IFR
VFR
LIFR
VFR
Unknown
Unavailable

Current Weather

METAR Observed VFR
OIBS 271100Z 24016KT CAVOK 34/22 Q1004 Wed, May 27, 2015 @ 11:00 UTC
(40 Minutes ago)
Visual Flight Rules
Wind Visibility Conditions
240° at 16 knots (30 kph) 10 km or more
  • No significant weather
Temperatures Readings Precipitation
Current Temp
34°C
93°F
Dewpoint
22°C
72°F
Heat Index
38°C
100°
Humidity 49%
Altimeter 29.65" Hg
Sea Level Pressure 1,004 mb
Field Elevation
14 m
46 ft
None Recorded

Additional weather within a 92.6km radius of OIBS

Map ICAO Location
OIBA 49.4km E (094°)
OIBL 74.8km N/NE (022°)
OIBK 88.5km NW (321°)
VFR
VFR
MVFR
MVFR
IFR
VFR
LIFR
VFR
Unknown
Unavailable
-
-

CheckWX.com is intended as a tool to help pilots better visualize weather data. It is not intended as a substitute for an official weather briefing obtained from a Flight Service Station. CheckWX.com does not meet the FAA requirements for an official pre-flight weather briefing. Therefore, it's important that pilots still call and obtain an official FSS pre-flight weather briefing.

© 2007-2015 CheckWX.com
11:40:11 UTC